sensor_id;sensor_type;location;lat;lon;timestamp;temperature;humidity
51035;DHT22;37062;52.546;13.230;2024-03-02T00:00:50;10.00;99.90
51035;DHT22;37062;52.546;13.230;2024-03-02T00:03:19;10.10;99.90
51035;DHT22;37062;52.546;13.230;2024-03-02T00:05:52;10.20;99.90
51035;DHT22;37062;52.546;13.230;2024-03-02T00:08:23;10.20;99.90
51035;DHT22;37062;52.546;13.230;2024-03-02T00:10:57;10.30;99.90
51035;DHT22;37062;52.546;13.230;2024-03-02T00:13:26;10.40;99.90
51035;DHT22;37062;52.546;13.230;2024-03-02T00:15:55;10.40;99.90
51035;DHT22;37062;52.546;13.230;2024-03-02T00:18:26;10.40;99.90
51035;DHT22;37062;52.546;13.230;2024-03-02T00:20:57;10.40;99.90
51035;DHT22;37062;52.546;13.230;2024-03-02T00:23:29;10.40;99.90
51035;DHT22;37062;52.546;13.230;2024-03-02T00:25:58;10.40;99.90
51035;DHT22;37062;52.546;13.230;2024-03-02T00:28:27;10.40;99.90
51035;DHT22;37062;52.546;13.230;2024-03-02T00:31:02;10.50;99.90
51035;DHT22;37062;52.546;13.230;2024-03-02T00:33:33;10.50;99.90
51035;DHT22;37062;52.546;13.230;2024-03-02T00:36:05;10.50;99.90
51035;DHT22;37062;52.546;13.230;2024-03-02T00:38:34;10.50;99.90
51035;DHT22;37062;52.546;13.230;2024-03-02T00:41:05;10.50;99.90
51035;DHT22;37062;52.546;13.230;2024-03-02T00:43:47;10.50;99.90
51035;DHT22;37062;52.546;13.230;2024-03-02T00:46:17;10.50;99.90
51035;DHT22;37062;52.546;13.230;2024-03-02T00:48:52;10.50;99.90
51035;DHT22;37062;52.546;13.230;2024-03-02T00:51:25;10.50;99.90
51035;DHT22;37062;52.546;13.230;2024-03-02T00:53:55;10.60;99.90
51035;DHT22;37062;52.546;13.230;2024-03-02T00:56:24;10.60;99.90
51035;DHT22;37062;52.546;13.230;2024-03-02T00:58:53;10.60;99.90
51035;DHT22;37062;52.546;13.230;2024-03-02T01:01:22;10.60;99.90
51035;DHT22;37062;52.546;13.230;2024-03-02T01:03:50;10.60;99.90
51035;DHT22;37062;52.546;13.230;2024-03-02T01:06:19;10.60;99.90
51035;DHT22;37062;52.546;13.230;2024-03-02T01:08:50;10.60;99.90
51035;DHT22;37062;52.546;13.230;2024-03-02T01:11:20;10.50;99.90
51035;DHT22;37062;52.546;13.230;2024-03-02T01:13:51;10.50;99.90
51035;DHT22;37062;52.546;13.230;2024-03-02T01:16:20;10.40;99.90
51035;DHT22;37062;52.546;13.230;2024-03-02T01:18:48;10.40;99.90
51035;DHT22;37062;52.546;13.230;2024-03-02T01:21:17;10.40;99.90
51035;DHT22;37062;52.546;13.230;2024-03-02T01:23:46;10.40;99.90
51035;DHT22;37062;52.546;13.230;2024-03-02T01:26:15;10.50;99.90
51035;DHT22;37062;52.546;13.230;2024-03-02T01:28:44;10.50;99.90
51035;DHT22;37062;52.546;13.230;2024-03-02T01:31:12;10.50;99.90
51035;DHT22;37062;52.546;13.230;2024-03-02T01:33:40;10.50;99.90
51035;DHT22;37062;52.546;13.230;2024-03-02T01:36:08;10.40;99.90
51035;DHT22;37062;52.546;13.230;2024-03-02T01:38:37;10.40;99.90
51035;DHT22;37062;52.546;13.230;2024-03-02T01:41:05;10.50;99.90
51035;DHT22;37062;52.546;13.230;2024-03-02T01:43:35;10.50;99.90
51035;DHT22;37062;52.546;13.230;2024-03-02T01:46:07;10.50;99.90
51035;DHT22;37062;52.546;13.230;2024-03-02T01:48:36;10.50;99.90
51035;DHT22;37062;52.546;13.230;2024-03-02T01:51:04;10.50;99.90
51035;DHT22;37062;52.546;13.230;2024-03-02T01:53:34;10.40;99.90
51035;DHT22;37062;52.546;13.230;2024-03-02T01:56:02;10.30;99.90
51035;DHT22;37062;52.546;13.230;2024-03-02T01:58:31;10.10;99.90
51035;DHT22;37062;52.546;13.230;2024-03-02T02:01:00;9.90;99.90
51035;DHT22;37062;52.546;13.230;2024-03-02T02:03:29;9.80;99.90
51035;DHT22;37062;52.546;13.230;2024-03-02T02:05:57;9.60;99.90
51035;DHT22;37062;52.546;13.230;2024-03-02T02:08:26;9.60;99.90
51035;DHT22;37062;52.546;13.230;2024-03-02T02:10:54;9.70;99.90
51035;DHT22;37062;52.546;13.230;2024-03-02T02:13:22;9.60;99.90
51035;DHT22;37062;52.546;13.230;2024-03-02T02:15:51;9.50;99.90
51035;DHT22;37062;52.546;13.230;2024-03-02T02:18:21;9.50;99.90
51035;DHT22;37062;52.546;13.230;2024-03-02T02:20:50;9.50;99.90
51035;DHT22;37062;52.546;13.230;2024-03-02T02:23:19;9.60;99.90
51035;DHT22;37062;52.546;13.230;2024-03-02T02:25:48;9.60;99.90
51035;DHT22;37062;52.546;13.230;2024-03-02T02:28:16;9.60;99.90
51035;DHT22;37062;52.546;13.230;2024-03-02T02:30:44;9.70;99.90
51035;DHT22;37062;52.546;13.230;2024-03-02T02:33:12;9.70;99.90
51035;DHT22;37062;52.546;13.230;2024-03-02T02:35:41;9.70;99.90
51035;DHT22;37062;52.546;13.230;2024-03-02T02:38:09;9.70;99.90
51035;DHT22;37062;52.546;13.230;2024-03-02T02:40:39;9.70;99.90
51035;DHT22;37062;52.546;13.230;2024-03-02T02:43:07;9.60;99.90
51035;DHT22;37062;52.546;13.230;2024-03-02T02:45:35;9.60;99.90
51035;DHT22;37062;52.546;13.230;2024-03-02T02:48:05;9.60;99.90
51035;DHT22;37062;52.546;13.230;2024-03-02T02:50:34;9.60;99.90
51035;DHT22;37062;52.546;13.230;2024-03-02T02:53:02;9.60;99.90
51035;DHT22;37062;52.546;13.230;2024-03-02T02:55:30;9.50;99.90
51035;DHT22;37062;52.546;13.230;2024-03-02T02:58:00;9.40;99.90
51035;DHT22;37062;52.546;13.230;2024-03-02T03:00:28;9.40;99.90
51035;DHT22;37062;52.546;13.230;2024-03-02T03:02:57;9.50;99.90
51035;DHT22;37062;52.546;13.230;2024-03-02T03:05:25;9.60;99.90
51035;DHT22;37062;52.546;13.230;2024-03-02T03:07:54;9.70;99.90
51035;DHT22;37062;52.546;13.230;2024-03-02T03:10:22;9.90;99.90
51035;DHT22;37062;52.546;13.230;2024-03-02T03:12:53;9.90;99.90
51035;DHT22;37062;52.546;13.230;2024-03-02T03:15:24;10.00;99.90
51035;DHT22;37062;52.546;13.230;2024-03-02T03:17:53;10.20;99.90
51035;DHT22;37062;52.546;13.230;2024-03-02T03:20:21;10.30;99.90
51035;DHT22;37062;52.546;13.230;2024-03-02T03:22:51;10.30;99.90
51035;DHT22;37062;52.546;13.230;2024-03-02T03:25:20;10.40;99.90
51035;DHT22;37062;52.546;13.230;2024-03-02T03:27:48;10.40;99.90
51035;DHT22;37062;52.546;13.230;2024-03-02T03:30:16;10.40;99.90
51035;DHT22;37062;52.546;13.230;2024-03-02T03:32:46;10.40;99.90
51035;DHT22;37062;52.546;13.230;2024-03-02T03:35:15;10.40;99.90
51035;DHT22;37062;52.546;13.230;2024-03-02T03:37:43;10.50;99.90
51035;DHT22;37062;52.546;13.230;2024-03-02T03:40:11;10.40;99.90
51035;DHT22;37062;52.546;13.230;2024-03-02T03:42:41;10.40;99.90
51035;DHT22;37062;52.546;13.230;2024-03-02T03:45:09;10.40;99.90
51035;DHT22;37062;52.546;13.230;2024-03-02T03:47:38;10.40;99.90
51035;DHT22;37062;52.546;13.230;2024-03-02T03:50:08;10.40;99.90
51035;DHT22;37062;52.546;13.230;2024-03-02T03:52:36;10.40;99.90
51035;DHT22;37062;52.546;13.230;2024-03-02T03:55:05;10.50;99.90
51035;DHT22;37062;52.546;13.230;2024-03-02T03:57:34;10.50;99.90
51035;DHT22;37062;52.546;13.230;2024-03-02T04:00:03;10.60;99.90
51035;DHT22;37062;52.546;13.230;2024-03-02T04:02:40;10.70;99.90
51035;DHT22;37062;52.546;13.230;2024-03-02T04:05:10;10.70;99.90
51035;DHT22;37062;52.546;13.230;2024-03-02T04:07:39;10.80;99.90
51035;DHT22;37062;52.546;13.230;2024-03-02T04:10:08;10.90;99.90
51035;DHT22;37062;52.546;13.230;2024-03-02T04:12:37;10.90;99.90
51035;DHT22;37062;52.546;13.230;2024-03-02T04:15:06;10.90;99.90
51035;DHT22;37062;52.546;13.230;2024-03-02T04:17:34;11.00;99.90
51035;DHT22;37062;52.546;13.230;2024-03-02T04:20:04;11.00;99.90
51035;DHT22;37062;52.546;13.230;2024-03-02T04:22:34;11.00;99.90
51035;DHT22;37062;52.546;13.230;2024-03-02T04:25:03;11.00;99.90
51035;DHT22;37062;52.546;13.230;2024-03-02T04:27:34;11.00;99.90
51035;DHT22;37062;52.546;13.230;2024-03-02T04:30:04;11.00;99.90
51035;DHT22;37062;52.546;13.230;2024-03-02T04:32:33;10.90;99.90
51035;DHT22;37062;52.546;13.230;2024-03-02T04:35:03;10.90;99.90
51035;DHT22;37062;52.546;13.230;2024-03-02T04:37:34;10.90;99.90
51035;DHT22;37062;52.546;13.230;2024-03-02T04:40:03;10.90;99.90
51035;DHT22;37062;52.546;13.230;2024-03-02T04:42:34;10.90;99.90
51035;DHT22;37062;52.546;13.230;2024-03-02T04:45:03;10.90;99.90
51035;DHT22;37062;52.546;13.230;2024-03-02T04:47:32;10.90;99.90
51035;DHT22;37062;52.546;13.230;2024-03-02T04:50:00;11.00;99.90
51035;DHT22;37062;52.546;13.230;2024-03-02T04:52:28;11.00;99.90
51035;DHT22;37062;52.546;13.230;2024-03-02T04:54:58;11.10;99.90
51035;DHT22;37062;52.546;13.230;2024-03-02T04:57:43;11.10;99.90
51035;DHT22;37062;52.546;13.230;2024-03-02T05:00:12;11.10;99.90
51035;DHT22;37062;52.546;13.230;2024-03-02T05:02:40;11.20;99.90
51035;DHT22;37062;52.546;13.230;2024-03-02T05:05:08;11.20;99.90
51035;DHT22;37062;52.546;13.230;2024-03-02T05:07:37;11.20;99.90
51035;DHT22;37062;52.546;13.230;2024-03-02T05:10:07;11.20;99.90
51035;DHT22;37062;52.546;13.230;2024-03-02T05:12:35;11.20;99.90
51035;DHT22;37062;52.546;13.230;2024-03-02T05:15:24;11.20;99.90
51035;DHT22;37062;52.546;13.230;2024-03-02T05:17:52;11.10;99.90
51035;DHT22;37062;52.546;13.230;2024-03-02T05:20:20;11.10;99.90
51035;DHT22;37062;52.546;13.230;2024-03-02T05:22:49;11.10;99.90
51035;DHT22;37062;52.546;13.230;2024-03-02T05:25:19;11.10;99.90
51035;DHT22;37062;52.546;13.230;2024-03-02T05:27:47;11.10;99.90
51035;DHT22;37062;52.546;13.230;2024-03-02T05:30:16;11.10;99.90
51035;DHT22;37062;52.546;13.230;2024-03-02T05:32:44;11.20;99.90
51035;DHT22;37062;52.546;13.230;2024-03-02T05:35:12;11.20;99.90
51035;DHT22;37062;52.546;13.230;2024-03-02T05:37:40;11.20;99.90
51035;DHT22;37062;52.546;13.230;2024-03-02T05:40:09;11.20;99.90
51035;DHT22;37062;52.546;13.230;2024-03-02T05:42:39;11.10;99.90
51035;DHT22;37062;52.546;13.230;2024-03-02T05:45:08;11.00;99.90
51035;DHT22;37062;52.546;13.230;2024-03-02T05:47:37;11.00;99.90
51035;DHT22;37062;52.546;13.230;2024-03-02T05:50:06;11.00;99.90
51035;DHT22;37062;52.546;13.230;2024-03-02T05:52:35;11.00;99.90
51035;DHT22;37062;52.546;13.230;2024-03-02T05:55:04;11.00;99.90
51035;DHT22;37062;52.546;13.230;2024-03-02T05:57:32;11.10;99.90
51035;DHT22;37062;52.546;13.230;2024-03-02T06:00:17;11.00;99.90
51035;DHT22;37062;52.546;13.230;2024-03-02T06:02:45;11.00;99.90
51035;DHT22;37062;52.546;13.230;2024-03-02T06:05:14;10.90;99.90
51035;DHT22;37062;52.546;13.230;2024-03-02T06:07:43;10.80;99.90
51035;DHT22;37062;52.546;13.230;2024-03-02T06:10:11;10.90;99.90
51035;DHT22;37062;52.546;13.230;2024-03-02T06:12:40;11.00;99.90
51035;DHT22;37062;52.546;13.230;2024-03-02T06:15:09;11.00;99.90
51035;DHT22;37062;52.546;13.230;2024-03-02T06:17:39;10.90;99.90
51035;DHT22;37062;52.546;13.230;2024-03-02T06:20:08;10.90;99.90
51035;DHT22;37062;52.546;13.230;2024-03-02T06:22:37;10.90;99.90
51035;DHT22;37062;52.546;13.230;2024-03-02T06:25:06;10.90;99.90
51035;DHT22;37062;52.546;13.230;2024-03-02T06:27:35;11.00;99.90
51035;DHT22;37062;52.546;13.230;2024-03-02T06:30:04;11.10;99.90
51035;DHT22;37062;52.546;13.230;2024-03-02T06:32:33;11.10;99.90
51035;DHT22;37062;52.546;13.230;2024-03-02T06:35:04;11.10;99.90
51035;DHT22;37062;52.546;13.230;2024-03-02T06:37:34;11.20;99.90
51035;DHT22;37062;52.546;13.230;2024-03-02T06:40:03;11.20;99.90
51035;DHT22;37062;52.546;13.230;2024-03-02T06:42:34;11.20;99.90
51035;DHT22;37062;52.546;13.230;2024-03-02T06:45:04;11.20;99.90
51035;DHT22;37062;52.546;13.230;2024-03-02T06:47:32;11.30;99.90
51035;DHT22;37062;52.546;13.230;2024-03-02T06:50:00;11.30;99.90
51035;DHT22;37062;52.546;13.230;2024-03-02T06:52:30;11.40;99.90
51035;DHT22;37062;52.546;13.230;2024-03-02T06:54:58;11.40;99.90
51035;DHT22;37062;52.546;13.230;2024-03-02T06:57:27;11.40;99.90
51035;DHT22;37062;52.546;13.230;2024-03-02T06:59:55;11.40;99.90
51035;DHT22;37062;52.546;13.230;2024-03-02T07:02:26;11.50;99.90
51035;DHT22;37062;52.546;13.230;2024-03-02T07:04:54;11.40;99.90
51035;DHT22;37062;52.546;13.230;2024-03-02T07:07:22;11.40;99.90
51035;DHT22;37062;52.546;13.230;2024-03-02T07:09:52;11.50;99.90
51035;DHT22;37062;52.546;13.230;2024-03-02T07:12:20;11.60;99.90
51035;DHT22;37062;52.546;13.230;2024-03-02T07:14:49;11.60;99.90
51035;DHT22;37062;52.546;13.230;2024-03-02T07:17:34;11.60;99.90
51035;DHT22;37062;52.546;13.230;2024-03-02T07:20:04;11.50;99.90
51035;DHT22;37062;52.546;13.230;2024-03-02T07:22:33;11.50;99.90
51035;DHT22;37062;52.546;13.230;2024-03-02T07:25:04;11.40;99.90
51035;DHT22;37062;52.546;13.230;2024-03-02T07:27:34;11.50;99.90
51035;DHT22;37062;52.546;13.230;2024-03-02T07:30:03;11.50;99.90
51035;DHT22;37062;52.546;13.230;2024-03-02T07:32:31;11.50;99.90
51035;DHT22;37062;52.546;13.230;2024-03-02T07:34:59;11.40;99.90
51035;DHT22;37062;52.546;13.230;2024-03-02T07:37:28;11.50;99.90
51035;DHT22;37062;52.546;13.230;2024-03-02T07:39:56;11.60;99.90
51035;DHT22;37062;52.546;13.230;2024-03-02T07:42:26;11.70;99.90
51035;DHT22;37062;52.546;13.230;2024-03-02T07:44:54;11.70;99.90
51035;DHT22;37062;52.546;13.230;2024-03-02T07:47:23;11.70;99.90
51035;DHT22;37062;52.546;13.230;2024-03-02T07:49:51;11.70;99.90
51035;DHT22;37062;52.546;13.230;2024-03-02T07:52:19;11.80;99.90
51035;DHT22;37062;52.546;13.230;2024-03-02T07:54:48;11.70;99.90
51035;DHT22;37062;52.546;13.230;2024-03-02T07:57:16;11.60;99.90
51035;DHT22;37062;52.546;13.230;2024-03-02T07:59:46;11.50;99.90
51035;DHT22;37062;52.546;13.230;2024-03-02T08:02:15;11.50;99.90
51035;DHT22;37062;52.546;13.230;2024-03-02T08:04:43;11.50;99.90
51035;DHT22;37062;52.546;13.230;2024-03-02T08:07:12;11.40;99.90
51035;DHT22;37062;52.546;13.230;2024-03-02T08:09:41;11.40;99.90
51035;DHT22;37062;52.546;13.230;2024-03-02T08:12:09;11.30;99.90
51035;DHT22;37062;52.546;13.230;2024-03-02T08:14:38;11.30;99.90
51035;DHT22;37062;52.546;13.230;2024-03-02T08:17:08;11.50;99.90
51035;DHT22;37062;52.546;13.230;2024-03-02T08:19:38;11.60;99.90
51035;DHT22;37062;52.546;13.230;2024-03-02T08:22:07;11.40;99.90
51035;DHT22;37062;52.546;13.230;2024-03-02T08:24:35;11.40;99.90
51035;DHT22;37062;52.546;13.230;2024-03-02T08:27:04;11.50;99.90
51035;DHT22;37062;52.546;13.230;2024-03-02T08:29:32;11.60;99.90
51035;DHT22;37062;52.546;13.230;2024-03-02T08:32:01;11.70;99.90
51035;DHT22;37062;52.546;13.230;2024-03-02T08:34:30;11.80;99.90
51035;DHT22;37062;52.546;13.230;2024-03-02T08:36:59;11.90;99.90
51035;DHT22;37062;52.546;13.230;2024-03-02T08:39:27;11.80;99.90
51035;DHT22;37062;52.546;13.230;2024-03-02T08:41:56;11.70;99.90
51035;DHT22;37062;52.546;13.230;2024-03-02T08:44:24;11.60;99.90
51035;DHT22;37062;52.546;13.230;2024-03-02T08:46:52;11.60;99.90
51035;DHT22;37062;52.546;13.230;2024-03-02T08:49:21;11.40;99.90
51035;DHT22;37062;52.546;13.230;2024-03-02T08:51:50;11.60;99.90
51035;DHT22;37062;52.546;13.230;2024-03-02T08:54:22;11.80;99.90
51035;DHT22;37062;52.546;13.230;2024-03-02T08:56:50;11.80;99.90
51035;DHT22;37062;52.546;13.230;2024-03-02T08:59:19;11.80;99.90
51035;DHT22;37062;52.546;13.230;2024-03-02T09:01:47;11.90;99.90
51035;DHT22;37062;52.546;13.230;2024-03-02T09:04:15;12.10;99.90
51035;DHT22;37062;52.546;13.230;2024-03-02T09:06:44;12.10;99.90
51035;DHT22;37062;52.546;13.230;2024-03-02T09:09:13;12.10;99.90
51035;DHT22;37062;52.546;13.230;2024-03-02T09:11:41;12.10;99.90
51035;DHT22;37062;52.546;13.230;2024-03-02T09:14:10;12.10;99.90
51035;DHT22;37062;52.546;13.230;2024-03-02T09:16:38;12.20;99.90
51035;DHT22;37062;52.546;13.230;2024-03-02T09:19:06;12.30;99.90
51035;DHT22;37062;52.546;13.230;2024-03-02T09:21:35;12.30;99.90
51035;DHT22;37062;52.546;13.230;2024-03-02T09:24:03;12.40;99.90
51035;DHT22;37062;52.546;13.230;2024-03-02T09:26:35;12.40;99.90
51035;DHT22;37062;52.546;13.230;2024-03-02T09:29:03;12.30;99.90
51035;DHT22;37062;52.546;13.230;2024-03-02T09:31:32;12.40;99.90
51035;DHT22;37062;52.546;13.230;2024-03-02T09:34:03;12.30;99.90
51035;DHT22;37062;52.546;13.230;2024-03-02T09:36:31;12.20;99.90
51035;DHT22;37062;52.546;13.230;2024-03-02T09:38:59;12.20;99.90
51035;DHT22;37062;52.546;13.230;2024-03-02T09:41:27;12.20;99.90
51035;DHT22;37062;52.546;13.230;2024-03-02T09:43:57;12.20;99.90
51035;DHT22;37062;52.546;13.230;2024-03-02T09:46:26;12.10;99.90
51035;DHT22;37062;52.546;13.230;2024-03-02T09:48:54;12.00;99.90
51035;DHT22;37062;52.546;13.230;2024-03-02T09:51:23;12.10;99.90
51035;DHT22;37062;52.546;13.230;2024-03-02T09:53:51;12.20;99.90
51035;DHT22;37062;52.546;13.230;2024-03-02T09:56:24;12.10;99.90
51035;DHT22;37062;52.546;13.230;2024-03-02T09:58:52;12.20;99.90
51035;DHT22;37062;52.546;13.230;2024-03-02T10:01:22;12.40;99.90
51035;DHT22;37062;52.546;13.230;2024-03-02T10:03:50;12.60;99.90
51035;DHT22;37062;52.546;13.230;2024-03-02T10:06:20;12.80;99.90
51035;DHT22;37062;52.546;13.230;2024-03-02T10:08:48;13.10;99.90
51035;DHT22;37062;52.546;13.230;2024-03-02T10:11:27;13.10;99.90
51035;DHT22;37062;52.546;13.230;2024-03-02T10:14:06;13.20;99.90
51035;DHT22;37062;52.546;13.230;2024-03-02T10:16:41;13.10;99.90
51035;DHT22;37062;52.546;13.230;2024-03-02T10:19:16;13.10;99.90
51035;DHT22;37062;52.546;13.230;2024-03-02T10:21:46;13.10;99.90
51035;DHT22;37062;52.546;13.230;2024-03-02T10:24:16;13.20;99.90
51035;DHT22;37062;52.546;13.230;2024-03-02T10:26:44;13.30;99.90
51035;DHT22;37062;52.546;13.230;2024-03-02T10:29:13;13.20;99.90
51035;DHT22;37062;52.546;13.230;2024-03-02T10:31:44;13.30;99.90
51035;DHT22;37062;52.546;13.230;2024-03-02T10:34:13;13.50;99.90
51035;DHT22;37062;52.546;13.230;2024-03-02T10:36:43;13.80;99.90
51035;DHT22;37062;52.546;13.230;2024-03-02T10:39:14;14.10;99.90
51035;DHT22;37062;52.546;13.230;2024-03-02T10:41:42;14.30;99.90
51035;DHT22;37062;52.546;13.230;2024-03-02T10:44:11;14.50;99.90
51035;DHT22;37062;52.546;13.230;2024-03-02T10:46:43;14.70;99.90
51035;DHT22;37062;52.546;13.230;2024-03-02T10:49:13;14.70;99.90
51035;DHT22;37062;52.546;13.230;2024-03-02T10:51:41;14.70;99.90
51035;DHT22;37062;52.546;13.230;2024-03-02T10:54:10;14.60;99.90
51035;DHT22;37062;52.546;13.230;2024-03-02T10:56:39;14.60;99.90
51035;DHT22;37062;52.546;13.230;2024-03-02T10:59:16;14.70;99.90
51035;DHT22;37062;52.546;13.230;2024-03-02T11:01:48;14.60;99.90
51035;DHT22;37062;52.546;13.230;2024-03-02T11:04:18;14.70;99.90
51035;DHT22;37062;52.546;13.230;2024-03-02T11:06:48;14.70;99.90
51035;DHT22;37062;52.546;13.230;2024-03-02T11:09:21;14.50;99.90
51035;DHT22;37062;52.546;13.230;2024-03-02T11:11:56;14.60;99.90
51035;DHT22;37062;52.546;13.230;2024-03-02T11:14:30;14.60;99.90
51035;DHT22;37062;52.546;13.230;2024-03-02T11:17:03;14.60;99.90
51035;DHT22;37062;52.546;13.230;2024-03-02T11:19:33;14.50;99.90
51035;DHT22;37062;52.546;13.230;2024-03-02T11:22:02;14.50;99.90
51035;DHT22;37062;52.546;13.230;2024-03-02T11:24:32;14.60;99.90
51035;DHT22;37062;52.546;13.230;2024-03-02T11:27:06;14.60;99.90
51035;DHT22;37062;52.546;13.230;2024-03-02T11:29:45;14.60;99.90
51035;DHT22;37062;52.546;13.230;2024-03-02T11:32:17;14.90;99.90
51035;DHT22;37062;52.546;13.230;2024-03-02T11:34:47;15.00;99.90
51035;DHT22;37062;52.546;13.230;2024-03-02T11:37:17;15.20;99.90
51035;DHT22;37062;52.546;13.230;2024-03-02T11:39:46;15.30;99.90
51035;DHT22;37062;52.546;13.230;2024-03-02T11:42:15;15.30;99.90
51035;DHT22;37062;52.546;13.230;2024-03-02T11:44:46;15.30;99.90
51035;DHT22;37062;52.546;13.230;2024-03-02T11:47:17;15.50;99.90
51035;DHT22;37062;52.546;13.230;2024-03-02T11:49:48;15.70;99.90
51035;DHT22;37062;52.546;13.230;2024-03-02T11:52:17;15.70;99.90
51035;DHT22;37062;52.546;13.230;2024-03-02T11:54:47;15.60;99.90
51035;DHT22;37062;52.546;13.230;2024-03-02T11:57:16;15.60;99.90
51035;DHT22;37062;52.546;13.230;2024-03-02T11:59:45;15.60;99.90
51035;DHT22;37062;52.546;13.230;2024-03-02T12:02:19;15.50;99.90
51035;DHT22;37062;52.546;13.230;2024-03-02T12:04:48;15.30;99.90
51035;DHT22;37062;52.546;13.230;2024-03-02T12:07:21;15.30;99.90
51035;DHT22;37062;52.546;13.230;2024-03-02T12:09:59;15.30;99.90
51035;DHT22;37062;52.546;13.230;2024-03-02T12:12:29;15.10;99.90
51035;DHT22;37062;52.546;13.230;2024-03-02T12:14:57;15.30;99.90
51035;DHT22;37062;52.546;13.230;2024-03-02T12:17:29;15.40;99.90
51035;DHT22;37062;52.546;13.230;2024-03-02T12:19:57;15.50;99.90
51035;DHT22;37062;52.546;13.230;2024-03-02T12:22:27;15.40;99.90
51035;DHT22;37062;52.546;13.230;2024-03-02T12:24:56;15.60;99.90
51035;DHT22;37062;52.546;13.230;2024-03-02T12:27:25;15.70;99.90
51035;DHT22;37062;52.546;13.230;2024-03-02T12:29:53;15.70;99.90
51035;DHT22;37062;52.546;13.230;2024-03-02T12:32:22;15.40;99.90
51035;DHT22;37062;52.546;13.230;2024-03-02T12:34:52;15.20;99.90
51035;DHT22;37062;52.546;13.230;2024-03-02T12:37:21;15.30;99.90
51035;DHT22;37062;52.546;13.230;2024-03-02T12:39:49;15.50;99.90
51035;DHT22;37062;52.546;13.230;2024-03-02T12:42:19;15.80;99.90
51035;DHT22;37062;52.546;13.230;2024-03-02T12:44:47;16.00;99.90
51035;DHT22;37062;52.546;13.230;2024-03-02T12:47:16;16.10;99.90
51035;DHT22;37062;52.546;13.230;2024-03-02T12:49:44;16.30;99.90
51035;DHT22;37062;52.546;13.230;2024-03-02T12:52:14;16.30;99.90
51035;DHT22;37062;52.546;13.230;2024-03-02T12:54:45;15.90;99.90
51035;DHT22;37062;52.546;13.230;2024-03-02T12:57:17;15.70;99.90
51035;DHT22;37062;52.546;13.230;2024-03-02T12:59:46;15.80;99.90
51035;DHT22;37062;52.546;13.230;2024-03-02T13:02:17;15.70;99.90
51035;DHT22;37062;52.546;13.230;2024-03-02T13:04:52;15.60;99.90
51035;DHT22;37062;52.546;13.230;2024-03-02T13:07:23;15.70;99.90
51035;DHT22;37062;52.546;13.230;2024-03-02T13:09:52;15.80;99.90
51035;DHT22;37062;52.546;13.230;2024-03-02T13:12:23;15.80;99.90
51035;DHT22;37062;52.546;13.230;2024-03-02T13:14:52;15.60;99.90
51035;DHT22;37062;52.546;13.230;2024-03-02T13:17:23;15.70;99.90
51035;DHT22;37062;52.546;13.230;2024-03-02T13:19:52;15.80;99.90
51035;DHT22;37062;52.546;13.230;2024-03-02T13:22:23;15.90;99.90
51035;DHT22;37062;52.546;13.230;2024-03-02T13:24:52;15.80;99.90
51035;DHT22;37062;52.546;13.230;2024-03-02T13:27:21;15.70;99.90
51035;DHT22;37062;52.546;13.230;2024-03-02T13:29:49;15.50;99.90
51035;DHT22;37062;52.546;13.230;2024-03-02T13:32:18;15.30;99.90
51035;DHT22;37062;52.546;13.230;2024-03-02T13:34:50;15.20;99.90
51035;DHT22;37062;52.546;13.230;2024-03-02T13:37:20;15.10;99.90
51035;DHT22;37062;52.546;13.230;2024-03-02T13:39:49;15.10;99.90
51035;DHT22;37062;52.546;13.230;2024-03-02T13:42:18;15.30;99.90
51035;DHT22;37062;52.546;13.230;2024-03-02T13:44:46;15.20;99.90
51035;DHT22;37062;52.546;13.230;2024-03-02T13:47:17;15.10;99.90
51035;DHT22;37062;52.546;13.230;2024-03-02T13:49:45;15.30;99.90
51035;DHT22;37062;52.546;13.230;2024-03-02T13:52:15;15.40;99.90
51035;DHT22;37062;52.546;13.230;2024-03-02T13:54:45;15.60;99.90
51035;DHT22;37062;52.546;13.230;2024-03-02T13:57:16;15.80;99.90
51035;DHT22;37062;52.546;13.230;2024-03-02T13:59:50;15.90;99.90
51035;DHT22;37062;52.546;13.230;2024-03-02T14:02:19;15.90;99.90
51035;DHT22;37062;52.546;13.230;2024-03-02T14:04:48;16.00;99.90
51035;DHT22;37062;52.546;13.230;2024-03-02T14:07:17;15.80;99.90
51035;DHT22;37062;52.546;13.230;2024-03-02T14:09:46;15.60;99.90
51035;DHT22;37062;52.546;13.230;2024-03-02T14:12:16;15.60;99.90
51035;DHT22;37062;52.546;13.230;2024-03-02T14:14:44;15.50;99.90
51035;DHT22;37062;52.546;13.230;2024-03-02T14:17:13;15.60;99.90
51035;DHT22;37062;52.546;13.230;2024-03-02T14:19:42;15.80;99.90
51035;DHT22;37062;52.546;13.230;2024-03-02T14:22:10;15.60;99.90
51035;DHT22;37062;52.546;13.230;2024-03-02T14:24:40;15.30;99.90
51035;DHT22;37062;52.546;13.230;2024-03-02T14:27:10;15.60;99.90
51035;DHT22;37062;52.546;13.230;2024-03-02T14:29:55;15.70;99.90
51035;DHT22;37062;52.546;13.230;2024-03-02T14:32:24;15.60;99.90
51035;DHT22;37062;52.546;13.230;2024-03-02T14:34:52;15.30;99.90
51035;DHT22;37062;52.546;13.230;2024-03-02T14:37:20;15.10;99.90
51035;DHT22;37062;52.546;13.230;2024-03-02T14:39:50;15.20;99.90
51035;DHT22;37062;52.546;13.230;2024-03-02T14:42:18;15.10;99.90
51035;DHT22;37062;52.546;13.230;2024-03-02T14:44:46;15.00;99.90
51035;DHT22;37062;52.546;13.230;2024-03-02T14:47:16;14.90;99.90
51035;DHT22;37062;52.546;13.230;2024-03-02T14:49:44;14.90;99.90
51035;DHT22;37062;52.546;13.230;2024-03-02T14:52:13;14.90;99.90
51035;DHT22;37062;52.546;13.230;2024-03-02T14:54:41;14.90;99.90
51035;DHT22;37062;52.546;13.230;2024-03-02T14:57:09;14.80;99.90
51035;DHT22;37062;52.546;13.230;2024-03-02T14:59:38;14.70;99.90
51035;DHT22;37062;52.546;13.230;2024-03-02T15:02:07;14.70;99.90
51035;DHT22;37062;52.546;13.230;2024-03-02T15:04:37;14.70;99.90
51035;DHT22;37062;52.546;13.230;2024-03-02T15:07:06;14.70;99.90
51035;DHT22;37062;52.546;13.230;2024-03-02T15:09:34;14.90;99.90
51035;DHT22;37062;52.546;13.230;2024-03-02T15:12:04;15.10;99.90
51035;DHT22;37062;52.546;13.230;2024-03-02T15:14:33;15.20;99.90
51035;DHT22;37062;52.546;13.230;2024-03-02T15:17:01;15.10;99.90
51035;DHT22;37062;52.546;13.230;2024-03-02T15:19:30;15.20;99.90
51035;DHT22;37062;52.546;13.230;2024-03-02T15:21:59;15.10;99.90
51035;DHT22;37062;52.546;13.230;2024-03-02T15:24:29;15.10;99.90
51035;DHT22;37062;52.546;13.230;2024-03-02T15:26:57;15.00;99.90
51035;DHT22;37062;52.546;13.230;2024-03-02T15:29:26;15.00;99.90
51035;DHT22;37062;52.546;13.230;2024-03-02T15:31:56;14.90;99.90